Cherry Grove, South Carolina
Current Conditions -  °F | °C
As of 12:53 PM on Friday 21 Nov 2014 (Local Time) from KCRE Reporting Station
Clear Clear  
Wind Chill: 60°   Ceiling: Unl
Heat Index: 60°   Visibility: 10mi
Dew Point: 23°   Wind: 7mph
Humidity: 24%   Direction: NA
Pressure: 30.37"   Gusts: NA
Location:  33.8371°N, 78.6471°W
Report Text: KCRE 211753Z VRB06KT 10SM CLR 16/M05 A3037 RMK AO1 SLP286 T01561050 10156 20067 58004
Loading
Personal Weather Stations






























Interactive Weather Map New forecast layout! Learn more

10-Day Weather Forecast

Advertisements
Track Severe Weather on mobile